sensor_id;sensor_type;location;lat;lon;timestamp;P1;durP1;ratioP1;P2;durP2;ratioP2
26718;SDS011;14326;50.794;6.060;2022-11-15T00:00:56;21.63;;;9.10;;
26718;SDS011;14326;50.794;6.060;2022-11-15T00:03:24;19.65;;;7.95;;
26718;SDS011;14326;50.794;6.060;2022-11-15T00:05:52;20.60;;;7.88;;
26718;SDS011;14326;50.794;6.060;2022-11-15T00:08:21;20.05;;;7.28;;
26718;SDS011;14326;50.794;6.060;2022-11-15T00:10:54;19.17;;;8.00;;
26718;SDS011;14326;50.794;6.060;2022-11-15T00:13:23;17.55;;;6.75;;
26718;SDS011;14326;50.794;6.060;2022-11-15T00:15:50;20.48;;;6.65;;
26718;SDS011;14326;50.794;6.060;2022-11-15T00:18:17;16.88;;;6.28;;
26718;SDS011;14326;50.794;6.060;2022-11-15T00:20:45;19.55;;;6.75;;
26718;SDS011;14326;50.794;6.060;2022-11-15T00:23:11;18.88;;;7.05;;
26718;SDS011;14326;50.794;6.060;2022-11-15T00:25:39;15.60;;;5.95;;
26718;SDS011;14326;50.794;6.060;2022-11-15T00:28:06;18.83;;;6.75;;
26718;SDS011;14326;50.794;6.060;2022-11-15T00:30:34;17.80;;;5.60;;
26718;SDS011;14326;50.794;6.060;2022-11-15T00:33:01;16.25;;;5.78;;
26718;SDS011;14326;50.794;6.060;2022-11-15T00:35:30;16.10;;;5.88;;
26718;SDS011;14326;50.794;6.060;2022-11-15T00:37:58;16.13;;;5.57;;
26718;SDS011;14326;50.794;6.060;2022-11-15T00:40:26;17.00;;;5.22;;
26718;SDS011;14326;50.794;6.060;2022-11-15T00:42:54;13.95;;;4.95;;
26718;SDS011;14326;50.794;6.060;2022-11-15T00:45:20;16.85;;;5.35;;
26718;SDS011;14326;50.794;6.060;2022-11-15T00:47:47;16.70;;;5.95;;
26718;SDS011;14326;50.794;6.060;2022-11-15T00:50:14;18.00;;;5.45;;
26718;SDS011;14326;50.794;6.060;2022-11-15T00:52:42;15.82;;;5.18;;
26718;SDS011;14326;50.794;6.060;2022-11-15T00:55:09;17.00;;;4.72;;
26718;SDS011;14326;50.794;6.060;2022-11-15T00:57:39;13.98;;;4.93;;
26718;SDS011;14326;50.794;6.060;2022-11-15T01:00:08;14.50;;;5.10;;
26718;SDS011;14326;50.794;6.060;2022-11-15T01:02:35;18.63;;;5.30;;
26718;SDS011;14326;50.794;6.060;2022-11-15T01:05:02;15.48;;;5.00;;
26718;SDS011;14326;50.794;6.060;2022-11-15T01:07:29;16.58;;;5.35;;
26718;SDS011;14326;50.794;6.060;2022-11-15T01:09:55;16.10;;;5.45;;
26718;SDS011;14326;50.794;6.060;2022-11-15T01:12:22;17.17;;;5.38;;
26718;SDS011;14326;50.794;6.060;2022-11-15T01:14:49;16.38;;;5.32;;
26718;SDS011;14326;50.794;6.060;2022-11-15T01:17:17;15.30;;;5.20;;
26718;SDS011;14326;50.794;6.060;2022-11-15T01:19:43;18.52;;;5.38;;
26718;SDS011;14326;50.794;6.060;2022-11-15T01:22:10;17.25;;;4.80;;
26718;SDS011;14326;50.794;6.060;2022-11-15T01:24:37;21.23;;;4.60;;
26718;SDS011;14326;50.794;6.060;2022-11-15T01:27:04;17.48;;;4.85;;
26718;SDS011;14326;50.794;6.060;2022-11-15T01:29:31;15.75;;;4.57;;
26718;SDS011;14326;50.794;6.060;2022-11-15T01:31:57;14.85;;;4.80;;
26718;SDS011;14326;50.794;6.060;2022-11-15T01:34:27;14.90;;;5.05;;
26718;SDS011;14326;50.794;6.060;2022-11-15T01:36:54;15.00;;;4.95;;
26718;SDS011;14326;50.794;6.060;2022-11-15T01:39:21;15.80;;;4.38;;
26718;SDS011;14326;50.794;6.060;2022-11-15T01:41:48;14.52;;;4.82;;
26718;SDS011;14326;50.794;6.060;2022-11-15T01:47:13;15.45;;;4.82;;
26718;SDS011;14326;50.794;6.060;2022-11-15T01:49:47;14.70;;;4.55;;
26718;SDS011;14326;50.794;6.060;2022-11-15T01:52:19;14.10;;;4.15;;
26718;SDS011;14326;50.794;6.060;2022-11-15T01:54:49;11.15;;;3.35;;
26718;SDS011;14326;50.794;6.060;2022-11-15T01:57:19;15.35;;;4.57;;
26718;SDS011;14326;50.794;6.060;2022-11-15T01:59:46;14.02;;;3.95;;
26718;SDS011;14326;50.794;6.060;2022-11-15T02:02:13;15.00;;;4.90;;
26718;SDS011;14326;50.794;6.060;2022-11-15T02:04:41;13.18;;;4.40;;
26718;SDS011;14326;50.794;6.060;2022-11-15T02:07:11;14.68;;;4.15;;
26718;SDS011;14326;50.794;6.060;2022-11-15T02:09:41;15.32;;;4.40;;
26718;SDS011;14326;50.794;6.060;2022-11-15T02:12:08;11.63;;;4.40;;
26718;SDS011;14326;50.794;6.060;2022-11-15T02:14:37;15.98;;;4.28;;
26718;SDS011;14326;50.794;6.060;2022-11-15T02:17:10;13.52;;;4.55;;
26718;SDS011;14326;50.794;6.060;2022-11-15T02:22:56;14.32;;;4.82;;
26718;SDS011;14326;50.794;6.060;2022-11-15T02:25:39;16.10;;;4.85;;
26718;SDS011;14326;50.794;6.060;2022-11-15T02:28:16;16.48;;;5.28;;
26718;SDS011;14326;50.794;6.060;2022-11-15T02:30:57;13.02;;;4.97;;
26718;SDS011;14326;50.794;6.060;2022-11-15T02:33:32;17.70;;;5.40;;
26718;SDS011;14326;50.794;6.060;2022-11-15T02:36:05;14.05;;;4.97;;
26718;SDS011;14326;50.794;6.060;2022-11-15T02:38:38;20.10;;;6.20;;
26718;SDS011;14326;50.794;6.060;2022-11-15T02:41:11;17.48;;;5.80;;
26718;SDS011;14326;50.794;6.060;2022-11-15T02:43:43;21.40;;;6.13;;
26718;SDS011;14326;50.794;6.060;2022-11-15T02:49:12;15.05;;;5.65;;
26718;SDS011;14326;50.794;6.060;2022-11-15T02:51:40;16.95;;;6.35;;
26718;SDS011;14326;50.794;6.060;2022-11-15T02:54:12;17.48;;;6.15;;
26718;SDS011;14326;50.794;6.060;2022-11-15T02:56:40;16.38;;;5.63;;
26718;SDS011;14326;50.794;6.060;2022-11-15T02:59:29;16.02;;;5.50;;
26718;SDS011;14326;50.794;6.060;2022-11-15T03:02:39;19.08;;;6.53;;
26718;SDS011;14326;50.794;6.060;2022-11-15T03:05:14;20.27;;;6.00;;
26718;SDS011;14326;50.794;6.060;2022-11-15T03:07:50;17.48;;;6.07;;
26718;SDS011;14326;50.794;6.060;2022-11-15T03:10:22;16.75;;;6.28;;
26718;SDS011;14326;50.794;6.060;2022-11-15T03:12:54;17.73;;;6.75;;
26718;SDS011;14326;50.794;6.060;2022-11-15T03:15:24;15.90;;;5.88;;
26718;SDS011;14326;50.794;6.060;2022-11-15T03:17:57;17.00;;;5.72;;
26718;SDS011;14326;50.794;6.060;2022-11-15T03:20:26;19.13;;;6.63;;
26718;SDS011;14326;50.794;6.060;2022-11-15T03:22:55;16.52;;;5.47;;
26718;SDS011;14326;50.794;6.060;2022-11-15T03:25:27;16.33;;;6.18;;
26718;SDS011;14326;50.794;6.060;2022-11-15T03:27:57;14.10;;;5.37;;
26718;SDS011;14326;50.794;6.060;2022-11-15T03:30:28;13.65;;;5.07;;
26718;SDS011;14326;50.794;6.060;2022-11-15T03:33:00;16.17;;;5.40;;
26718;SDS011;14326;50.794;6.060;2022-11-15T03:35:31;15.60;;;6.28;;
26718;SDS011;14326;50.794;6.060;2022-11-15T03:38:04;14.60;;;4.90;;
26718;SDS011;14326;50.794;6.060;2022-11-15T03:40:38;13.75;;;4.60;;
26718;SDS011;14326;50.794;6.060;2022-11-15T03:43:17;12.15;;;3.90;;
26718;SDS011;14326;50.794;6.060;2022-11-15T03:45:51;11.02;;;3.95;;
26718;SDS011;14326;50.794;6.060;2022-11-15T03:48:24;10.75;;;3.90;;
26718;SDS011;14326;50.794;6.060;2022-11-15T03:50:54;10.38;;;3.55;;
26718;SDS011;14326;50.794;6.060;2022-11-15T03:53:21;8.13;;;3.28;;
26718;SDS011;14326;50.794;6.060;2022-11-15T03:55:48;10.18;;;3.40;;
26718;SDS011;14326;50.794;6.060;2022-11-15T03:58:15;13.98;;;4.03;;
26718;SDS011;14326;50.794;6.060;2022-11-15T04:00:41;11.45;;;3.72;;
26718;SDS011;14326;50.794;6.060;2022-11-15T04:03:08;9.98;;;3.60;;
26718;SDS011;14326;50.794;6.060;2022-11-15T04:05:36;11.35;;;4.13;;
26718;SDS011;14326;50.794;6.060;2022-11-15T04:08:09;8.35;;;3.75;;
26718;SDS011;14326;50.794;6.060;2022-11-15T04:10:37;9.20;;;3.20;;
26718;SDS011;14326;50.794;6.060;2022-11-15T04:13:13;7.43;;;2.33;;
26718;SDS011;14326;50.794;6.060;2022-11-15T04:15:54;8.98;;;3.17;;
26718;SDS011;14326;50.794;6.060;2022-11-15T04:18:33;10.75;;;3.17;;
26718;SDS011;14326;50.794;6.060;2022-11-15T04:21:09;8.35;;;2.78;;
26718;SDS011;14326;50.794;6.060;2022-11-15T04:23:59;6.63;;;2.90;;
26718;SDS011;14326;50.794;6.060;2022-11-15T04:26:46;8.98;;;3.13;;
26718;SDS011;14326;50.794;6.060;2022-11-15T04:29:14;7.93;;;3.22;;
26718;SDS011;14326;50.794;6.060;2022-11-15T04:32:02;7.97;;;3.08;;
26718;SDS011;14326;50.794;6.060;2022-11-15T04:34:37;5.53;;;2.60;;
26718;SDS011;14326;50.794;6.060;2022-11-15T04:37:11;6.72;;;2.33;;
26718;SDS011;14326;50.794;6.060;2022-11-15T04:39:36;4.28;;;2.15;;
26718;SDS011;14326;50.794;6.060;2022-11-15T04:42:04;5.65;;;1.80;;
26718;SDS011;14326;50.794;6.060;2022-11-15T04:44:31;6.22;;;2.42;;
26718;SDS011;14326;50.794;6.060;2022-11-15T04:47:12;5.15;;;2.10;;
26718;SDS011;14326;50.794;6.060;2022-11-15T04:49:39;3.05;;;1.67;;
26718;SDS011;14326;50.794;6.060;2022-11-15T04:52:06;5.72;;;2.03;;
26718;SDS011;14326;50.794;6.060;2022-11-15T04:54:34;6.03;;;1.95;;
26718;SDS011;14326;50.794;6.060;2022-11-15T04:57:01;5.40;;;2.25;;
26718;SDS011;14326;50.794;6.060;2022-11-15T04:59:29;7.85;;;2.50;;
26718;SDS011;14326;50.794;6.060;2022-11-15T05:01:56;5.82;;;2.00;;
26718;SDS011;14326;50.794;6.060;2022-11-15T05:04:23;4.47;;;1.98;;
26718;SDS011;14326;50.794;6.060;2022-11-15T05:06:49;5.10;;;1.80;;
26718;SDS011;14326;50.794;6.060;2022-11-15T05:09:17;3.55;;;1.73;;
26718;SDS011;14326;50.794;6.060;2022-11-15T05:11:45;4.28;;;1.70;;
26718;SDS011;14326;50.794;6.060;2022-11-15T05:14:12;5.25;;;1.85;;
26718;SDS011;14326;50.794;6.060;2022-11-15T05:16:39;5.10;;;1.90;;
26718;SDS011;14326;50.794;6.060;2022-11-15T05:19:06;2.53;;;1.48;;
26718;SDS011;14326;50.794;6.060;2022-11-15T05:21:32;4.30;;;1.92;;
26718;SDS011;14326;50.794;6.060;2022-11-15T05:24:00;3.80;;;1.60;;
26718;SDS011;14326;50.794;6.060;2022-11-15T05:26:27;2.95;;;1.63;;
26718;SDS011;14326;50.794;6.060;2022-11-15T05:28:56;4.07;;;1.52;;
26718;SDS011;14326;50.794;6.060;2022-11-15T05:31:24;4.60;;;1.95;;
26718;SDS011;14326;50.794;6.060;2022-11-15T05:33:52;6.53;;;1.50;;
26718;SDS011;14326;50.794;6.060;2022-11-15T05:36:22;4.50;;;1.40;;
26718;SDS011;14326;50.794;6.060;2022-11-15T05:38:57;3.92;;;1.70;;
26718;SDS011;14326;50.794;6.060;2022-11-15T05:41:25;3.58;;;1.27;;
26718;SDS011;14326;50.794;6.060;2022-11-15T05:43:58;2.53;;;0.93;;
26718;SDS011;14326;50.794;6.060;2022-11-15T05:46:26;3.78;;;1.35;;
26718;SDS011;14326;50.794;6.060;2022-11-15T05:48:53;2.58;;;1.17;;
26718;SDS011;14326;50.794;6.060;2022-11-15T05:51:20;2.78;;;1.30;;
26718;SDS011;14326;50.794;6.060;2022-11-15T05:53:48;5.35;;;1.58;;
26718;SDS011;14326;50.794;6.060;2022-11-15T05:56:17;3.55;;;1.20;;
26718;SDS011;14326;50.794;6.060;2022-11-15T05:58:44;7.05;;;1.30;;
26718;SDS011;14326;50.794;6.060;2022-11-15T06:01:12;4.75;;;1.45;;
26718;SDS011;14326;50.794;6.060;2022-11-15T06:03:38;4.55;;;1.70;;
26718;SDS011;14326;50.794;6.060;2022-11-15T06:06:05;4.60;;;1.63;;
26718;SDS011;14326;50.794;6.060;2022-11-15T06:08:32;6.63;;;1.70;;
26718;SDS011;14326;50.794;6.060;2022-11-15T06:11:03;3.85;;;1.30;;
26718;SDS011;14326;50.794;6.060;2022-11-15T06:13:30;8.00;;;2.25;;
26718;SDS011;14326;50.794;6.060;2022-11-15T06:15:57;4.00;;;1.38;;
26718;SDS011;14326;50.794;6.060;2022-11-15T06:18:25;3.08;;;1.05;;
26718;SDS011;14326;50.794;6.060;2022-11-15T06:20:52;1.50;;;0.95;;
26718;SDS011;14326;50.794;6.060;2022-11-15T06:23:19;6.07;;;1.35;;
26718;SDS011;14326;50.794;6.060;2022-11-15T06:25:45;5.72;;;1.23;;
26718;SDS011;14326;50.794;6.060;2022-11-15T06:28:12;3.50;;;1.10;;
26718;SDS011;14326;50.794;6.060;2022-11-15T06:30:39;3.85;;;1.33;;
26718;SDS011;14326;50.794;6.060;2022-11-15T06:33:05;3.10;;;1.10;;
26718;SDS011;14326;50.794;6.060;2022-11-15T06:35:35;8.88;;;1.67;;
26718;SDS011;14326;50.794;6.060;2022-11-15T06:38:02;4.85;;;1.30;;
26718;SDS011;14326;50.794;6.060;2022-11-15T06:40:32;3.03;;;1.35;;
26718;SDS011;14326;50.794;6.060;2022-11-15T06:42:59;3.42;;;1.20;;
26718;SDS011;14326;50.794;6.060;2022-11-15T06:45:26;7.35;;;1.80;;
26718;SDS011;14326;50.794;6.060;2022-11-15T06:47:53;4.20;;;1.27;;
26718;SDS011;14326;50.794;6.060;2022-11-15T06:50:19;4.68;;;1.20;;
26718;SDS011;14326;50.794;6.060;2022-11-15T06:52:47;5.57;;;1.35;;
26718;SDS011;14326;50.794;6.060;2022-11-15T06:55:14;6.95;;;1.20;;
26718;SDS011;14326;50.794;6.060;2022-11-15T06:57:46;4.47;;;1.20;;
26718;SDS011;14326;50.794;6.060;2022-11-15T07:00:14;12.10;;;2.00;;
26718;SDS011;14326;50.794;6.060;2022-11-15T07:02:41;5.22;;;1.67;;
26718;SDS011;14326;50.794;6.060;2022-11-15T07:05:08;4.00;;;1.50;;
26718;SDS011;14326;50.794;6.060;2022-11-15T07:07:35;6.88;;;1.70;;
26718;SDS011;14326;50.794;6.060;2022-11-15T07:10:03;6.68;;;1.67;;
26718;SDS011;14326;50.794;6.060;2022-11-15T07:12:30;6.45;;;1.63;;
26718;SDS011;14326;50.794;6.060;2022-11-15T07:14:57;8.43;;;2.20;;
26718;SDS011;14326;50.794;6.060;2022-11-15T07:17:24;5.05;;;1.60;;
26718;SDS011;14326;50.794;6.060;2022-11-15T07:19:50;6.10;;;1.77;;
26718;SDS011;14326;50.794;6.060;2022-11-15T07:22:17;7.28;;;2.00;;
26718;SDS011;14326;50.794;6.060;2022-11-15T07:24:44;3.97;;;1.83;;
26718;SDS011;14326;50.794;6.060;2022-11-15T07:27:12;5.88;;;1.95;;
26718;SDS011;14326;50.794;6.060;2022-11-15T07:29:38;8.18;;;1.98;;
26718;SDS011;14326;50.794;6.060;2022-11-15T07:32:05;8.25;;;2.33;;
26718;SDS011;14326;50.794;6.060;2022-11-15T07:34:31;10.77;;;2.30;;
26718;SDS011;14326;50.794;6.060;2022-11-15T07:36:58;8.75;;;2.35;;
26718;SDS011;14326;50.794;6.060;2022-11-15T07:39:25;12.65;;;2.33;;
26718;SDS011;14326;50.794;6.060;2022-11-15T07:41:51;7.35;;;2.38;;
26718;SDS011;14326;50.794;6.060;2022-11-15T07:44:40;7.78;;;1.88;;
26718;SDS011;14326;50.794;6.060;2022-11-15T07:47:06;9.73;;;1.80;;
26718;SDS011;14326;50.794;6.060;2022-11-15T07:49:33;9.38;;;2.35;;
26718;SDS011;14326;50.794;6.060;2022-11-15T07:51:59;9.52;;;1.63;;
26718;SDS011;14326;50.794;6.060;2022-11-15T07:54:26;10.95;;;2.42;;
26718;SDS011;14326;50.794;6.060;2022-11-15T07:56:52;11.15;;;1.95;;
26718;SDS011;14326;50.794;6.060;2022-11-15T07:59:19;7.25;;;2.10;;
26718;SDS011;14326;50.794;6.060;2022-11-15T08:01:47;5.78;;;1.75;;
26718;SDS011;14326;50.794;6.060;2022-11-15T08:04:14;8.38;;;1.58;;
26718;SDS011;14326;50.794;6.060;2022-11-15T08:06:41;10.40;;;1.90;;
26718;SDS011;14326;50.794;6.060;2022-11-15T08:09:07;7.57;;;1.83;;
26718;SDS011;14326;50.794;6.060;2022-11-15T08:11:34;6.57;;;1.98;;
26718;SDS011;14326;50.794;6.060;2022-11-15T08:14:01;3.40;;;1.52;;
26718;SDS011;14326;50.794;6.060;2022-11-15T08:16:28;10.25;;;1.75;;
26718;SDS011;14326;50.794;6.060;2022-11-15T08:18:56;6.15;;;1.40;;
26718;SDS011;14326;50.794;6.060;2022-11-15T08:21:22;6.15;;;1.75;;
26718;SDS011;14326;50.794;6.060;2022-11-15T08:23:49;6.18;;;1.58;;
26718;SDS011;14326;50.794;6.060;2022-11-15T08:26:16;3.95;;;1.52;;
26718;SDS011;14326;50.794;6.060;2022-11-15T08:28:43;5.55;;;1.33;;
26718;SDS011;14326;50.794;6.060;2022-11-15T08:31:12;7.68;;;2.05;;
26718;SDS011;14326;50.794;6.060;2022-11-15T08:33:40;7.65;;;1.27;;
26718;SDS011;14326;50.794;6.060;2022-11-15T08:36:11;10.10;;;1.63;;
26718;SDS011;14326;50.794;6.060;2022-11-15T08:38:40;6.78;;;1.48;;
26718;SDS011;14326;50.794;6.060;2022-11-15T08:41:06;6.00;;;2.13;;
26718;SDS011;14326;50.794;6.060;2022-11-15T08:43:38;5.82;;;1.70;;
26718;SDS011;14326;50.794;6.060;2022-11-15T08:46:05;7.47;;;1.75;;
26718;SDS011;14326;50.794;6.060;2022-11-15T08:48:37;8.80;;;1.75;;
26718;SDS011;14326;50.794;6.060;2022-11-15T08:51:04;6.70;;;1.95;;
26718;SDS011;14326;50.794;6.060;2022-11-15T08:53:33;9.73;;;2.17;;
26718;SDS011;14326;50.794;6.060;2022-11-15T08:55:59;9.50;;;1.90;;
26718;SDS011;14326;50.794;6.060;2022-11-15T08:58:26;9.23;;;2.08;;
26718;SDS011;14326;50.794;6.060;2022-11-15T09:00:53;5.85;;;2.03;;
26718;SDS011;14326;50.794;6.060;2022-11-15T09:03:20;7.70;;;2.00;;
26718;SDS011;14326;50.794;6.060;2022-11-15T09:05:46;6.57;;;1.80;;
26718;SDS011;14326;50.794;6.060;2022-11-15T09:08:13;9.10;;;1.92;;
26718;SDS011;14326;50.794;6.060;2022-11-15T09:10:41;10.48;;;2.17;;
26718;SDS011;14326;50.794;6.060;2022-11-15T09:13:08;8.98;;;1.60;;
26718;SDS011;14326;50.794;6.060;2022-11-15T09:15:35;11.27;;;3.38;;
26718;SDS011;14326;50.794;6.060;2022-11-15T09:18:01;6.70;;;1.55;;
26718;SDS011;14326;50.794;6.060;2022-11-15T09:20:28;7.18;;;1.65;;
26718;SDS011;14326;50.794;6.060;2022-11-15T09:22:57;7.85;;;1.75;;
26718;SDS011;14326;50.794;6.060;2022-11-15T09:25:26;6.20;;;1.52;;
26718;SDS011;14326;50.794;6.060;2022-11-15T09:27:54;5.57;;;1.38;;
26718;SDS011;14326;50.794;6.060;2022-11-15T09:30:22;4.70;;;1.27;;
26718;SDS011;14326;50.794;6.060;2022-11-15T09:32:49;6.20;;;1.23;;
26718;SDS011;14326;50.794;6.060;2022-11-15T09:35:16;10.57;;;1.33;;
26718;SDS011;14326;50.794;6.060;2022-11-15T09:37:43;4.80;;;1.23;;
26718;SDS011;14326;50.794;6.060;2022-11-15T09:40:11;3.22;;;1.05;;
26718;SDS011;14326;50.794;6.060;2022-11-15T09:42:46;6.07;;;1.23;;
26718;SDS011;14326;50.794;6.060;2022-11-15T09:45:28;4.75;;;1.30;;
26718;SDS011;14326;50.794;6.060;2022-11-15T09:48:05;4.97;;;1.13;;
26718;SDS011;14326;50.794;6.060;2022-11-15T09:50:46;7.43;;;1.10;;
26718;SDS011;14326;50.794;6.060;2022-11-15T09:53:17;5.80;;;1.25;;
26718;SDS011;14326;50.794;6.060;2022-11-15T09:55:51;9.45;;;1.42;;
26718;SDS011;14326;50.794;6.060;2022-11-15T09:58:29;10.00;;;1.15;;
26718;SDS011;14326;50.794;6.060;2022-11-15T10:01:02;8.75;;;1.60;;
26718;SDS011;14326;50.794;6.060;2022-11-15T10:03:36;3.13;;;1.00;;
26718;SDS011;14326;50.794;6.060;2022-11-15T10:06:08;4.03;;;1.05;;
26718;SDS011;14326;50.794;6.060;2022-11-15T10:08:46;4.38;;;1.20;;
26718;SDS011;14326;50.794;6.060;2022-11-15T10:11:19;6.32;;;1.40;;
26718;SDS011;14326;50.794;6.060;2022-11-15T10:13:50;4.18;;;0.98;;
26718;SDS011;14326;50.794;6.060;2022-11-15T10:16:24;5.65;;;1.10;;
26718;SDS011;14326;50.794;6.060;2022-11-15T10:19:05;3.88;;;1.65;;
26718;SDS011;14326;50.794;6.060;2022-11-15T10:21:44;4.07;;;1.30;;
26718;SDS011;14326;50.794;6.060;2022-11-15T10:24:20;7.32;;;1.38;;
26718;SDS011;14326;50.794;6.060;2022-11-15T10:26:54;8.25;;;1.20;;
26718;SDS011;14326;50.794;6.060;2022-11-15T10:29:23;8.15;;;1.38;;
26718;SDS011;14326;50.794;6.060;2022-11-15T10:31:51;5.72;;;1.00;;
26718;SDS011;14326;50.794;6.060;2022-11-15T10:34:19;7.53;;;1.48;;
26718;SDS011;14326;50.794;6.060;2022-11-15T10:36:46;7.35;;;1.10;;
26718;SDS011;14326;50.794;6.060;2022-11-15T10:39:21;5.72;;;1.40;;
26718;SDS011;14326;50.794;6.060;2022-11-15T10:41:47;3.08;;;1.05;;
26718;SDS011;14326;50.794;6.060;2022-11-15T10:44:18;6.30;;;1.38;;
26718;SDS011;14326;50.794;6.060;2022-11-15T10:47:03;5.07;;;0.95;;
26718;SDS011;14326;50.794;6.060;2022-11-15T10:49:33;5.65;;;1.30;;
26718;SDS011;14326;50.794;6.060;2022-11-15T10:52:01;8.73;;;0.98;;
26718;SDS011;14326;50.794;6.060;2022-11-15T10:54:39;4.10;;;1.00;;
26718;SDS011;14326;50.794;6.060;2022-11-15T10:57:10;5.72;;;1.45;;
26718;SDS011;14326;50.794;6.060;2022-11-15T10:59:42;8.02;;;1.35;;
26718;SDS011;14326;50.794;6.060;2022-11-15T11:02:31;1.45;;;0.70;;
26718;SDS011;14326;50.794;6.060;2022-11-15T11:05:02;5.18;;;0.93;;
26718;SDS011;14326;50.794;6.060;2022-11-15T11:07:31;8.73;;;1.20;;
26718;SDS011;14326;50.794;6.060;2022-11-15T11:10:03;8.07;;;1.02;;
26718;SDS011;14326;50.794;6.060;2022-11-15T11:12:45;6.05;;;1.08;;
26718;SDS011;14326;50.794;6.060;2022-11-15T11:15:19;7.35;;;1.48;;
26718;SDS011;14326;50.794;6.060;2022-11-15T11:17:54;8.30;;;1.65;;
26718;SDS011;14326;50.794;6.060;2022-11-15T11:20:30;8.00;;;1.10;;
26718;SDS011;14326;50.794;6.060;2022-11-15T11:23:12;6.63;;;0.85;;
26718;SDS011;14326;50.794;6.060;2022-11-15T11:26:03;4.03;;;1.17;;
26718;SDS011;14326;50.794;6.060;2022-11-15T11:28:45;9.52;;;1.50;;
26718;SDS011;14326;50.794;6.060;2022-11-15T11:31:24;6.15;;;1.38;;
26718;SDS011;14326;50.794;6.060;2022-11-15T11:34:02;5.93;;;1.20;;
26718;SDS011;14326;50.794;6.060;2022-11-15T11:36:45;8.00;;;1.30;;
26718;SDS011;14326;50.794;6.060;2022-11-15T11:39:27;7.25;;;1.38;;
26718;SDS011;14326;50.794;6.060;2022-11-15T11:42:03;8.00;;;1.73;;
26718;SDS011;14326;50.794;6.060;2022-11-15T11:44:43;10.77;;;1.40;;
26718;SDS011;14326;50.794;6.060;2022-11-15T11:47:21;2.95;;;0.93;;
26718;SDS011;14326;50.794;6.060;2022-11-15T11:52:23;7.13;;;1.20;;
26718;SDS011;14326;50.794;6.060;2022-11-15T11:54:58;7.88;;;1.27;;
26718;SDS011;14326;50.794;6.060;2022-11-15T11:57:32;7.93;;;1.45;;
26718;SDS011;14326;50.794;6.060;2022-11-15T12:00:12;7.82;;;1.40;;
26718;SDS011;14326;50.794;6.060;2022-11-15T12:02:45;7.78;;;1.73;;
26718;SDS011;14326;50.794;6.060;2022-11-15T12:05:20;9.80;;;1.73;;
26718;SDS011;14326;50.794;6.060;2022-11-15T12:07:54;8.98;;;2.55;;
26718;SDS011;14326;50.794;6.060;2022-11-15T12:10:28;4.55;;;1.27;;
26718;SDS011;14326;50.794;6.060;2022-11-15T12:13:00;10.25;;;1.33;;
26718;SDS011;14326;50.794;6.060;2022-11-15T12:15:31;6.85;;;1.42;;
26718;SDS011;14326;50.794;6.060;2022-11-15T12:18:01;6.20;;;1.20;;
26718;SDS011;14326;50.794;6.060;2022-11-15T12:20:32;3.83;;;1.40;;
26718;SDS011;14326;50.794;6.060;2022-11-15T12:23:05;10.23;;;1.83;;
26718;SDS011;14326;50.794;6.060;2022-11-15T12:25:41;7.80;;;1.70;;
26718;SDS011;14326;50.794;6.060;2022-11-15T12:28:15;4.55;;;1.05;;
26718;SDS011;14326;50.794;6.060;2022-11-15T12:30:48;5.72;;;1.40;;
26718;SDS011;14326;50.794;6.060;2022-11-15T12:33:28;7.03;;;1.98;;
26718;SDS011;14326;50.794;6.060;2022-11-15T12:35:59;7.15;;;1.40;;
26718;SDS011;14326;50.794;6.060;2022-11-15T12:41:14;6.53;;;1.42;;
26718;SDS011;14326;50.794;6.060;2022-11-15T12:43:43;7.68;;;1.38;;
26718;SDS011;14326;50.794;6.060;2022-11-15T12:46:12;8.80;;;1.65;;
26718;SDS011;14326;50.794;6.060;2022-11-15T12:48:47;3.95;;;1.48;;
26718;SDS011;14326;50.794;6.060;2022-11-15T12:51:18;11.93;;;1.90;;
26718;SDS011;14326;50.794;6.060;2022-11-15T12:53:47;3.72;;;1.10;;
26718;SDS011;14326;50.794;6.060;2022-11-15T12:56:18;7.72;;;1.35;;
26718;SDS011;14326;50.794;6.060;2022-11-15T12:58:47;5.55;;;1.65;;
26718;SDS011;14326;50.794;6.060;2022-11-15T13:04:24;6.18;;;1.48;;
26718;SDS011;14326;50.794;6.060;2022-11-15T13:15:33;4.15;;;1.50;;
26718;SDS011;14326;50.794;6.060;2022-11-15T13:21:00;5.03;;;1.58;;
26718;SDS011;14326;50.794;6.060;2022-11-15T13:23:54;10.48;;;1.95;;
26718;SDS011;14326;50.794;6.060;2022-11-15T13:26:21;8.65;;;1.70;;
26718;SDS011;14326;50.794;6.060;2022-11-15T13:28:49;7.55;;;1.58;;
26718;SDS011;14326;50.794;6.060;2022-11-15T13:31:30;4.47;;;1.38;;
26718;SDS011;14326;50.794;6.060;2022-11-15T13:34:03;6.50;;;1.20;;
26718;SDS011;14326;50.794;6.060;2022-11-15T13:36:46;6.75;;;1.73;;
26718;SDS011;14326;50.794;6.060;2022-11-15T13:39:25;5.82;;;1.25;;
26718;SDS011;14326;50.794;6.060;2022-11-15T13:41:53;4.65;;;1.45;;
26718;SDS011;14326;50.794;6.060;2022-11-15T13:44:23;8.38;;;1.67;;
26718;SDS011;14326;50.794;6.060;2022-11-15T13:47:02;4.30;;;1.40;;
26718;SDS011;14326;50.794;6.060;2022-11-15T13:49:31;2.80;;;1.27;;
26718;SDS011;14326;50.794;6.060;2022-11-15T13:51:59;3.00;;;1.30;;
26718;SDS011;14326;50.794;6.060;2022-11-15T13:54:30;5.72;;;1.25;;
26718;SDS011;14326;50.794;6.060;2022-11-15T13:57:02;5.25;;;1.48;;
26718;SDS011;14326;50.794;6.060;2022-11-15T13:59:31;5.85;;;1.70;;
26718;SDS011;14326;50.794;6.060;2022-11-15T14:02:02;5.93;;;1.73;;
26718;SDS011;14326;50.794;6.060;2022-11-15T14:04:38;4.45;;;1.70;;
26718;SDS011;14326;50.794;6.060;2022-11-15T14:07:15;6.55;;;2.00;;
26718;SDS011;14326;50.794;6.060;2022-11-15T14:09:45;7.75;;;1.92;;
26718;SDS011;14326;50.794;6.060;2022-11-15T14:12:26;8.45;;;2.03;;
26718;SDS011;14326;50.794;6.060;2022-11-15T14:14:55;3.53;;;1.60;;
26718;SDS011;14326;50.794;6.060;2022-11-15T14:17:33;8.02;;;1.80;;
26718;SDS011;14326;50.794;6.060;2022-11-15T14:23:03;7.47;;;1.55;;
26718;SDS011;14326;50.794;6.060;2022-11-15T14:25:33;6.03;;;1.45;;
26718;SDS011;14326;50.794;6.060;2022-11-15T14:28:08;7.18;;;1.90;;
26718;SDS011;14326;50.794;6.060;2022-11-15T14:30:40;3.88;;;1.48;;
26718;SDS011;14326;50.794;6.060;2022-11-15T14:35:54;4.78;;;1.48;;
26718;SDS011;14326;50.794;6.060;2022-11-15T14:38:22;4.28;;;1.60;;
26718;SDS011;14326;50.794;6.060;2022-11-15T14:40:51;5.03;;;1.60;;
26718;SDS011;14326;50.794;6.060;2022-11-15T14:43:19;8.05;;;1.70;;
26718;SDS011;14326;50.794;6.060;2022-11-15T14:45:46;7.78;;;2.50;;
26718;SDS011;14326;50.794;6.060;2022-11-15T14:48:13;5.45;;;1.75;;
26718;SDS011;14326;50.794;6.060;2022-11-15T14:50:40;4.00;;;1.58;;
26718;SDS011;14326;50.794;6.060;2022-11-15T14:53:06;5.20;;;1.65;;
26718;SDS011;14326;50.794;6.060;2022-11-15T14:55:38;4.40;;;1.50;;
26718;SDS011;14326;50.794;6.060;2022-11-15T14:58:06;3.05;;;1.40;;
26718;SDS011;14326;50.794;6.060;2022-11-15T15:00:34;5.45;;;1.90;;
26718;SDS011;14326;50.794;6.060;2022-11-15T15:03:01;5.10;;;1.58;;
26718;SDS011;14326;50.794;6.060;2022-11-15T15:05:30;4.03;;;1.90;;
26718;SDS011;14326;50.794;6.060;2022-11-15T15:07:59;5.03;;;1.75;;
26718;SDS011;14326;50.794;6.060;2022-11-15T15:10:27;3.95;;;1.50;;
26718;SDS011;14326;50.794;6.060;2022-11-15T15:12:57;4.45;;;1.50;;
26718;SDS011;14326;50.794;6.060;2022-11-15T15:15:27;5.10;;;1.75;;
26718;SDS011;14326;50.794;6.060;2022-11-15T15:17:58;7.53;;;1.50;;
26718;SDS011;14326;50.794;6.060;2022-11-15T15:20:25;5.85;;;2.10;;
26718;SDS011;14326;50.794;6.060;2022-11-15T15:22:52;6.35;;;1.67;;
26718;SDS011;14326;50.794;6.060;2022-11-15T15:25:20;7.18;;;2.00;;
26718;SDS011;14326;50.794;6.060;2022-11-15T15:27:48;5.80;;;1.85;;
26718;SDS011;14326;50.794;6.060;2022-11-15T15:30:16;5.40;;;1.70;;
26718;SDS011;14326;50.794;6.060;2022-11-15T15:32:44;5.20;;;1.50;;
26718;SDS011;14326;50.794;6.060;2022-11-15T15:35:11;4.65;;;1.48;;
26718;SDS011;14326;50.794;6.060;2022-11-15T15:37:39;3.63;;;1.23;;